createdAt,value
2022-10-29T00:01:18.581Z,15.30
2022-10-29T00:03:48.500Z,15.30
2022-10-29T00:06:17.031Z,15.20
2022-10-29T00:08:45.541Z,15.20
2022-10-29T00:11:16.564Z,15.20
2022-10-29T00:13:47.693Z,15.20
2022-10-29T00:16:17.804Z,15.20
2022-10-29T00:18:46.754Z,15.10
2022-10-29T00:21:17.413Z,15.10
2022-10-29T00:23:46.120Z,15.10
2022-10-29T00:26:15.311Z,15.10
2022-10-29T00:28:45.916Z,15.10
2022-10-29T00:31:16.090Z,15.10
2022-10-29T00:33:44.702Z,15.10
2022-10-29T00:36:14.760Z,15.00
2022-10-29T00:38:43.321Z,15.00
2022-10-29T00:41:16.223Z,15.00
2022-10-29T00:43:50.480Z,15.00
2022-10-29T00:46:23.710Z,14.90
2022-10-29T00:48:56.219Z,14.90
2022-10-29T00:51:25.166Z,14.90
2022-10-29T00:53:57.981Z,14.90
2022-10-29T00:56:29.400Z,14.90
2022-10-29T00:58:59.550Z,14.80
2022-10-29T01:01:28.248Z,14.80
2022-10-29T01:03:56.990Z,14.80
2022-10-29T01:06:26.492Z,14.80
2022-10-29T01:08:54.991Z,14.80
2022-10-29T01:11:33.572Z,14.80
2022-10-29T01:14:22.940Z,14.70
2022-10-29T01:16:57.012Z,14.70
2022-10-29T01:19:47.281Z,14.80
2022-10-29T01:22:19.722Z,14.70
2022-10-29T01:24:56.371Z,14.70
2022-10-29T01:27:55.771Z,14.60
2022-10-29T01:31:02.720Z,14.60
2022-10-29T01:33:38.652Z,14.60
2022-10-29T01:36:19.701Z,14.60
2022-10-29T01:38:54.950Z,14.50
2022-10-29T01:41:31.716Z,14.50
2022-10-29T01:44:06.669Z,14.50
2022-10-29T01:46:41.583Z,14.50
2022-10-29T01:49:15.542Z,14.40
2022-10-29T01:51:45.738Z,14.40
2022-10-29T01:54:14.319Z,14.40
2022-10-29T01:56:42.881Z,14.40
2022-10-29T01:59:23.286Z,14.40
2022-10-29T02:02:14.101Z,14.30
2022-10-29T02:04:58.061Z,14.30
2022-10-29T02:07:41.502Z,14.30
2022-10-29T02:10:19.661Z,14.20
2022-10-29T02:12:50.482Z,14.20
2022-10-29T02:15:23.034Z,14.20
2022-10-29T02:17:53.476Z,14.10
2022-10-29T02:20:22.381Z,14.00
2022-10-29T02:22:50.852Z,14.00
2022-10-29T02:25:19.588Z,14.00
2022-10-29T02:27:48.112Z,13.90
2022-10-29T02:30:16.775Z,13.90
2022-10-29T02:32:45.533Z,13.90
2022-10-29T02:35:15.580Z,13.90
2022-10-29T02:37:44.283Z,13.90
2022-10-29T02:40:14.000Z,13.80
2022-10-29T02:42:42.581Z,13.70
2022-10-29T02:45:12.822Z,13.60
2022-10-29T02:47:41.370Z,13.60
2022-10-29T02:50:11.011Z,13.40
2022-10-29T02:52:41.743Z,13.40
2022-10-29T02:55:10.892Z,13.30
2022-10-29T02:57:39.431Z,13.20
2022-10-29T03:00:09.079Z,13.20
2022-10-29T03:02:37.710Z,13.10
2022-10-29T03:05:07.161Z,13.00
2022-10-29T03:07:37.553Z,13.00
2022-10-29T03:10:09.155Z,12.90
2022-10-29T03:12:37.713Z,12.80
2022-10-29T03:15:06.982Z,12.70
2022-10-29T03:17:35.432Z,12.50
2022-10-29T03:20:04.068Z,12.40
2022-10-29T03:22:32.591Z,12.30
2022-10-29T03:25:01.101Z,12.10
2022-10-29T03:27:31.007Z,12.10
2022-10-29T03:29:59.500Z,12.10
2022-10-29T03:32:27.959Z,12.00
2022-10-29T03:34:59.813Z,12.00
2022-10-29T03:37:28.535Z,11.90
2022-10-29T03:39:57.060Z,11.90
2022-10-29T03:42:25.566Z,11.90
2022-10-29T03:44:55.461Z,12.00
2022-10-29T03:47:24.031Z,12.00
2022-10-29T03:49:52.538Z,12.00
2022-10-29T03:52:21.394Z,11.90
2022-10-29T03:54:50.060Z,11.90
2022-10-29T03:57:18.870Z,11.90
2022-10-29T03:59:49.970Z,11.90
2022-10-29T04:02:22.512Z,11.80
2022-10-29T04:04:51.111Z,11.90
2022-10-29T04:07:19.681Z,11.90
2022-10-29T04:09:48.191Z,11.90
2022-10-29T04:12:16.753Z,11.80
2022-10-29T04:14:46.001Z,11.70
2022-10-29T04:17:14.549Z,11.60
2022-10-29T04:19:44.471Z,11.70
2022-10-29T04:28:42.041Z,11.70
2022-10-29T04:30:38.488Z,11.60
2022-10-29T04:33:07.031Z,11.40
2022-10-29T04:35:36.922Z,11.50
2022-10-29T04:38:10.001Z,11.60
2022-10-29T04:40:38.515Z,11.60
2022-10-29T04:43:07.042Z,11.70
2022-10-29T04:45:35.677Z,11.90
2022-10-29T04:48:05.722Z,11.80
2022-10-29T04:50:38.072Z,11.90
2022-10-29T04:53:07.622Z,11.90
2022-10-29T04:55:38.561Z,12.00
2022-10-29T04:58:07.411Z,12.00
2022-10-29T05:00:36.320Z,12.10
2022-10-29T05:03:05.029Z,12.20
2022-10-29T05:05:33.621Z,12.10
2022-10-29T05:08:04.843Z,12.10
2022-10-29T05:10:35.311Z,12.10
2022-10-29T05:13:05.652Z,12.20
2022-10-29T05:15:34.471Z,12.30
2022-10-29T05:18:03.446Z,12.30
2022-10-29T05:20:32.322Z,12.30
2022-10-29T05:23:03.141Z,12.40
2022-10-29T05:25:33.237Z,12.50
2022-10-29T05:28:03.986Z,12.50
2022-10-29T05:30:32.836Z,12.40
2022-10-29T05:33:01.357Z,12.30
2022-10-29T05:35:30.432Z,12.20
2022-10-29T05:37:58.943Z,12.20
2022-10-29T05:40:29.501Z,12.20
2022-10-29T05:42:58.273Z,12.20
2022-10-29T05:45:27.381Z,12.30
2022-10-29T05:47:59.396Z,12.20
2022-10-29T05:50:28.802Z,12.20
2022-10-29T05:52:58.430Z,12.20
2022-10-29T05:55:29.683Z,12.20
2022-10-29T05:57:58.612Z,12.10
2022-10-29T06:00:27.723Z,12.10
2022-10-29T06:02:56.875Z,12.10
2022-10-29T06:05:26.107Z,12.10
2022-10-29T06:07:59.002Z,12.10
2022-10-29T06:10:30.804Z,12.10
2022-10-29T06:12:59.361Z,12.10
2022-10-29T06:15:27.902Z,12.10
2022-10-29T06:17:56.741Z,12.20
2022-10-29T06:20:25.481Z,12.20
2022-10-29T06:23:00.392Z,12.20
2022-10-29T06:25:30.463Z,12.30
2022-10-29T06:28:03.081Z,12.40
2022-10-29T06:30:32.543Z,12.40
2022-10-29T06:33:01.632Z,12.40
2022-10-29T06:35:30.804Z,12.40
2022-10-29T06:37:59.882Z,12.50
2022-10-29T06:40:30.461Z,12.50
2022-10-29T06:43:02.601Z,12.60
2022-10-29T06:45:31.742Z,12.60
2022-10-29T06:48:00.450Z,12.60
2022-10-29T06:50:29.802Z,12.60
2022-10-29T06:52:59.638Z,12.60
2022-10-29T06:55:30.462Z,12.60
2022-10-29T06:58:01.292Z,12.70
2022-10-29T07:00:30.546Z,12.80
2022-10-29T07:03:00.231Z,12.80
2022-10-29T07:05:29.177Z,12.90
2022-10-29T07:07:58.373Z,13.00
2022-10-29T07:10:29.864Z,13.00
2022-10-29T07:12:58.384Z,13.00
2022-10-29T07:15:30.483Z,13.00
2022-10-29T07:18:00.942Z,13.10
2022-10-29T07:20:30.432Z,13.10
2022-10-29T07:22:59.556Z,13.20
2022-10-29T07:25:30.036Z,13.20
2022-10-29T07:28:05.123Z,13.30
2022-10-29T07:30:34.182Z,13.30
2022-10-29T07:33:02.869Z,13.30
2022-10-29T07:35:31.502Z,13.30
2022-10-29T07:38:05.260Z,13.40
2022-10-29T07:40:41.312Z,13.40
2022-10-29T07:43:10.871Z,13.50
2022-10-29T07:45:39.522Z,13.50
2022-10-29T07:48:08.983Z,13.60
2022-10-29T07:50:40.722Z,13.60
2022-10-29T07:53:09.746Z,13.60
2022-10-29T07:55:39.651Z,13.60
2022-10-29T07:58:11.471Z,13.70
2022-10-29T08:00:42.397Z,13.70
2022-10-29T08:03:13.301Z,13.80
2022-10-29T08:05:43.019Z,13.90
2022-10-29T08:08:11.962Z,14.00
2022-10-29T08:10:41.881Z,14.00
2022-10-29T08:13:10.361Z,14.10
2022-10-29T08:15:38.785Z,14.10
2022-10-29T08:18:14.031Z,14.20
2022-10-29T08:20:42.652Z,14.20
2022-10-29T08:23:11.421Z,14.30
2022-10-29T08:25:43.021Z,14.30
2022-10-29T08:28:12.762Z,14.40
2022-10-29T08:30:41.628Z,14.40
2022-10-29T08:33:11.851Z,14.50
2022-10-29T08:35:40.342Z,14.60
2022-10-29T08:38:09.028Z,14.60
2022-10-29T08:40:51.248Z,14.60
2022-10-29T08:43:57.615Z,14.70
2022-10-29T08:46:36.793Z,14.70
2022-10-29T08:49:11.641Z,14.70
2022-10-29T08:51:42.361Z,14.80
2022-10-29T08:54:30.274Z,14.70
2022-10-29T08:57:07.414Z,14.80
2022-10-29T08:59:41.860Z,14.80
2022-10-29T09:02:18.922Z,14.80
2022-10-29T09:04:47.578Z,14.90
2022-10-29T09:07:30.355Z,14.90
2022-10-29T09:10:05.622Z,14.90
2022-10-29T09:12:56.944Z,15.00
2022-10-29T09:15:54.755Z,15.10
2022-10-29T09:18:37.733Z,15.20
2022-10-29T09:21:13.632Z,15.40
2022-10-29T09:24:03.217Z,15.50
2022-10-29T09:26:34.913Z,15.70
2022-10-29T09:29:20.529Z,15.70
2022-10-29T09:31:51.876Z,15.70
2022-10-29T09:34:29.318Z,15.90
2022-10-29T09:36:58.320Z,15.90
2022-10-29T09:39:34.471Z,16.00
2022-10-29T09:42:09.843Z,16.00
2022-10-29T09:44:45.031Z,15.90
2022-10-29T09:47:22.840Z,16.10
2022-10-29T09:50:05.439Z,16.30
2022-10-29T09:52:40.772Z,16.40
2022-10-29T09:55:18.241Z,16.60
2022-10-29T09:57:47.172Z,16.90
2022-10-29T10:00:21.522Z,17.30
2022-10-29T10:02:56.079Z,17.50
2022-10-29T10:05:29.668Z,17.60
2022-10-29T10:08:09.797Z,17.50
2022-10-29T10:10:50.053Z,17.50
2022-10-29T10:13:20.650Z,17.50
2022-10-29T10:15:54.474Z,17.50
2022-10-29T10:18:24.923Z,17.70
2022-10-29T10:21:06.615Z,18.10
2022-10-29T10:23:47.062Z,18.80
2022-10-29T10:26:39.482Z,19.00
2022-10-29T10:29:18.735Z,19.10
2022-10-29T10:31:49.826Z,18.90
2022-10-29T10:34:20.462Z,18.70
2022-10-29T10:36:53.718Z,18.60
2022-10-29T10:39:31.900Z,18.60
2022-10-29T10:42:04.063Z,18.30
2022-10-29T10:44:32.922Z,18.10
2022-10-29T10:47:09.296Z,18.00
2022-10-29T10:49:40.204Z,18.10
2022-10-29T10:52:18.970Z,18.00
2022-10-29T10:54:55.622Z,18.00
2022-10-29T10:57:32.894Z,18.30
2022-10-29T11:00:06.798Z,18.40
2022-10-29T11:02:50.324Z,18.80
2022-10-29T11:05:21.487Z,19.70
2022-10-29T11:07:59.690Z,20.40
2022-10-29T11:10:36.106Z,20.50
2022-10-29T11:13:09.644Z,20.10
2022-10-29T11:15:42.443Z,19.90
2022-10-29T11:18:19.583Z,20.20
2022-10-29T11:20:55.857Z,20.40
2022-10-29T11:23:35.786Z,20.20
2022-10-29T11:26:11.285Z,19.90
2022-10-29T11:28:42.433Z,19.60
2022-10-29T11:31:18.857Z,19.20
2022-10-29T11:33:58.463Z,18.90
2022-10-29T11:36:31.585Z,18.70
2022-10-29T11:39:08.732Z,18.60
2022-10-29T11:41:42.853Z,18.40
2022-10-29T11:44:14.266Z,18.40
2022-10-29T11:46:56.666Z,18.50
2022-10-29T11:49:55.465Z,18.50
2022-10-29T11:52:35.662Z,18.50
2022-10-29T11:55:20.183Z,18.50
2022-10-29T11:57:54.879Z,18.40
2022-10-29T12:00:33.647Z,18.50
2022-10-29T12:03:29.870Z,18.50
2022-10-29T12:06:11.464Z,18.30
2022-10-29T12:08:59.835Z,18.20
2022-10-29T12:11:42.998Z,18.20
2022-10-29T12:14:26.373Z,18.20
2022-10-29T12:17:01.514Z,18.20
2022-10-29T12:19:43.052Z,18.20
2022-10-29T12:22:35.696Z,18.00
2022-10-29T12:25:19.064Z,18.00
2022-10-29T12:27:57.714Z,18.00
2022-10-29T12:30:27.072Z,17.90
2022-10-29T12:33:03.798Z,17.80
2022-10-29T12:35:42.474Z,17.70
2022-10-29T12:38:26.852Z,17.60
2022-10-29T12:41:04.557Z,17.60
2022-10-29T12:43:37.024Z,17.60
2022-10-29T12:46:21.134Z,17.60
2022-10-29T12:49:03.562Z,17.60
2022-10-29T12:51:43.984Z,17.50
2022-10-29T12:54:34.926Z,17.50
2022-10-29T12:57:19.588Z,17.40
2022-10-29T12:59:48.761Z,17.50
2022-10-29T13:02:30.347Z,17.60
2022-10-29T13:05:18.319Z,17.60
2022-10-29T13:08:19.000Z,17.60
2022-10-29T13:10:57.257Z,17.60
2022-10-29T13:14:00.299Z,17.60
2022-10-29T13:16:33.427Z,17.50
2022-10-29T13:19:17.007Z,17.50
2022-10-29T13:22:04.316Z,17.40
2022-10-29T13:24:33.908Z,17.30
2022-10-29T13:27:29.776Z,17.30
2022-10-29T13:30:22.696Z,17.30
2022-10-29T13:32:51.944Z,17.10
2022-10-29T13:35:41.439Z,17.10
2022-10-29T13:38:17.486Z,17.10
2022-10-29T13:41:15.012Z,17.10
2022-10-29T13:43:55.590Z,17.10
2022-10-29T13:46:47.422Z,17.10
2022-10-29T13:49:23.890Z,17.10
2022-10-29T13:51:57.816Z,17.10
2022-10-29T13:54:41.201Z,17.20
2022-10-29T13:57:19.396Z,17.20
2022-10-29T13:59:55.853Z,17.30
2022-10-29T14:02:37.208Z,17.40
2022-10-29T14:05:16.220Z,17.40
2022-10-29T14:07:51.632Z,17.50
2022-10-29T14:10:25.804Z,17.50
2022-10-29T14:13:00.624Z,17.50
2022-10-29T14:15:32.221Z,17.50
2022-10-29T14:18:18.175Z,17.50
2022-10-29T14:20:56.241Z,17.50
2022-10-29T14:23:25.782Z,17.50
2022-10-29T14:25:56.931Z,17.50
2022-10-29T14:28:28.071Z,17.30
2022-10-29T14:31:13.232Z,17.30
2022-10-29T14:33:43.452Z,17.30
2022-10-29T14:36:22.080Z,17.30
2022-10-29T14:38:53.644Z,17.40
2022-10-29T14:41:23.914Z,17.60
2022-10-29T14:43:58.590Z,17.70
2022-10-29T14:46:31.788Z,17.80
2022-10-29T14:49:06.253Z,17.80
2022-10-29T14:51:40.453Z,17.90
2022-10-29T14:54:18.033Z,17.80
2022-10-29T14:56:50.946Z,17.70
2022-10-29T14:59:24.938Z,17.50
2022-10-29T15:02:17.338Z,17.50
2022-10-29T15:04:51.855Z,17.40
2022-10-29T15:07:32.197Z,17.30
2022-10-29T15:10:18.942Z,17.20
2022-10-29T15:12:49.670Z,17.20
2022-10-29T15:15:28.873Z,17.20
2022-10-29T15:18:03.574Z,17.10
2022-10-29T15:20:37.530Z,17.00
2022-10-29T15:23:07.561Z,17.00
2022-10-29T15:25:40.171Z,16.90
2022-10-29T15:28:12.680Z,16.90
2022-10-29T15:30:42.052Z,16.90
2022-10-29T15:33:19.444Z,16.90
2022-10-29T15:35:52.143Z,16.80
2022-10-29T15:39:21.028Z,16.80
2022-10-29T15:41:51.917Z,16.70
2022-10-29T15:44:38.927Z,16.60
2022-10-29T15:47:31.994Z,16.50
2022-10-29T15:50:02.883Z,16.40
2022-10-29T15:52:34.748Z,16.40
2022-10-29T15:55:06.003Z,16.30
2022-10-29T15:57:35.597Z,16.20
2022-10-29T16:00:07.445Z,16.20
2022-10-29T16:02:38.001Z,16.10
2022-10-29T16:05:09.814Z,16.10
2022-10-29T16:07:39.039Z,16.00
2022-10-29T16:10:14.430Z,16.00
2022-10-29T16:12:43.855Z,16.00
2022-10-29T16:15:18.567Z,15.90
2022-10-29T16:17:48.163Z,15.90
2022-10-29T16:20:21.031Z,15.80
2022-10-29T16:22:50.813Z,15.80
2022-10-29T16:25:26.545Z,15.80
2022-10-29T16:27:56.787Z,15.80
2022-10-29T16:30:26.574Z,15.90
2022-10-29T16:32:57.183Z,15.90
2022-10-29T16:35:29.864Z,15.90
2022-10-29T16:38:00.312Z,15.80
2022-10-29T16:40:30.384Z,15.70
2022-10-29T16:42:59.770Z,15.70
2022-10-29T16:45:31.264Z,15.60
2022-10-29T16:48:01.113Z,15.70
2022-10-29T16:50:34.106Z,15.70
2022-10-29T16:53:04.421Z,15.70
2022-10-29T16:55:33.489Z,15.70
2022-10-29T16:58:02.864Z,15.60
2022-10-29T17:00:33.454Z,15.50
2022-10-29T17:03:05.140Z,15.50
2022-10-29T17:05:43.289Z,15.50
2022-10-29T17:08:12.844Z,15.50
2022-10-29T17:10:42.701Z,15.40
2022-10-29T17:13:12.457Z,15.40
2022-10-29T17:15:42.112Z,15.30
2022-10-29T17:18:11.886Z,15.40
2022-10-29T17:20:42.634Z,15.40
2022-10-29T17:23:11.951Z,15.40
2022-10-29T17:25:41.944Z,15.40
2022-10-29T17:28:13.265Z,15.30
2022-10-29T17:30:42.761Z,15.30
2022-10-29T17:33:13.392Z,15.30
2022-10-29T17:35:44.005Z,15.30
2022-10-29T17:38:13.400Z,15.30
2022-10-29T17:40:45.654Z,15.20
2022-10-29T17:43:15.369Z,15.20
2022-10-29T17:45:47.182Z,15.20
2022-10-29T17:48:17.787Z,15.10
2022-10-29T17:50:56.012Z,15.10
2022-10-29T17:53:26.139Z,15.10
2022-10-29T17:55:55.125Z,15.10
2022-10-29T17:58:24.343Z,15.00
2022-10-29T18:00:53.699Z,14.90
2022-10-29T18:03:26.612Z,14.80
2022-10-29T18:06:01.335Z,14.70
2022-10-29T18:08:30.992Z,14.70
2022-10-29T18:11:07.544Z,14.70
2022-10-29T18:13:41.521Z,14.70
2022-10-29T18:16:11.544Z,14.60
2022-10-29T18:18:54.699Z,14.60
2022-10-29T18:21:33.596Z,14.60
2022-10-29T18:24:03.292Z,14.50
2022-10-29T18:26:34.028Z,14.50
2022-10-29T18:29:04.274Z,14.50
2022-10-29T18:31:33.477Z,14.50
2022-10-29T18:34:05.364Z,14.40
2022-10-29T18:36:37.513Z,14.40
2022-10-29T18:39:07.534Z,14.30
2022-10-29T18:41:37.474Z,14.30
2022-10-29T18:44:07.419Z,14.40
2022-10-29T18:46:37.267Z,14.50
2022-10-29T18:49:06.258Z,14.50
2022-10-29T18:51:37.400Z,14.50
2022-10-29T18:54:07.601Z,14.50
2022-10-29T18:56:40.238Z,14.50
2022-10-29T18:59:12.176Z,14.40
2022-10-29T19:01:41.743Z,14.50
2022-10-29T19:04:14.857Z,14.40
2022-10-29T19:06:45.177Z,14.40
2022-10-29T19:09:14.948Z,14.40
2022-10-29T19:11:44.030Z,14.40
2022-10-29T19:14:15.644Z,14.40
2022-10-29T19:16:45.033Z,14.40
2022-10-29T19:19:17.215Z,14.30
2022-10-29T19:21:50.596Z,14.30
2022-10-29T19:24:20.774Z,14.30
2022-10-29T19:26:49.884Z,14.30
2022-10-29T19:29:18.867Z,14.20
2022-10-29T19:31:48.426Z,14.20
2022-10-29T19:34:18.274Z,14.20
2022-10-29T19:36:49.872Z,14.20
2022-10-29T19:39:19.653Z,14.20
2022-10-29T19:41:50.099Z,14.20
2022-10-29T19:44:19.552Z,14.20
2022-10-29T19:46:48.283Z,14.10
2022-10-29T19:49:17.817Z,14.10
2022-10-29T19:51:47.440Z,14.10
2022-10-29T19:54:18.221Z,14.20
2022-10-29T19:56:47.252Z,14.20
2022-10-29T19:59:16.772Z,14.20
2022-10-29T20:01:49.048Z,14.20
2022-10-29T20:04:18.301Z,14.20
2022-10-29T20:06:48.833Z,14.20
2022-10-29T20:09:19.266Z,14.20
2022-10-29T20:11:48.246Z,14.20
2022-10-29T20:14:18.443Z,14.30
2022-10-29T20:16:47.891Z,14.30
2022-10-29T20:19:16.943Z,14.30
2022-10-29T20:21:46.050Z,14.40
2022-10-29T20:24:15.361Z,14.40
2022-10-29T20:26:46.273Z,14.40
2022-10-29T20:29:16.858Z,14.40
2022-10-29T20:31:46.408Z,14.40
2022-10-29T20:34:15.489Z,14.40
2022-10-29T20:36:47.055Z,14.40
2022-10-29T20:39:16.097Z,14.20
2022-10-29T20:41:48.253Z,14.20
2022-10-29T20:44:16.945Z,14.20
2022-10-29T20:46:46.112Z,14.20
2022-10-29T20:49:15.334Z,14.20
2022-10-29T20:51:45.822Z,14.20
2022-10-29T20:54:14.679Z,14.20
2022-10-29T20:56:45.042Z,14.20
2022-10-29T20:59:15.773Z,14.10
2022-10-29T21:01:45.099Z,14.10
2022-10-29T21:04:15.054Z,14.10
2022-10-29T21:06:44.313Z,14.10
2022-10-29T21:09:13.688Z,14.20
2022-10-29T21:11:43.054Z,14.10
2022-10-29T21:14:12.630Z,14.10
2022-10-29T21:16:43.574Z,14.10
2022-10-29T21:19:13.043Z,14.00
2022-10-29T21:21:41.902Z,14.00
2022-10-29T21:24:10.455Z,14.00
2022-10-29T21:26:39.109Z,14.10
2022-10-29T21:29:08.026Z,14.10
2022-10-29T21:31:36.984Z,14.10
2022-10-29T21:34:07.959Z,14.00
2022-10-29T21:36:36.462Z,14.10
2022-10-29T21:39:05.042Z,14.10
2022-10-29T21:41:33.627Z,14.10
2022-10-29T21:44:02.155Z,14.20
2022-10-29T21:46:30.606Z,14.20
2022-10-29T21:48:59.203Z,14.20
2022-10-29T21:51:29.278Z,14.20
2022-10-29T21:53:57.919Z,14.20
2022-10-29T21:56:26.532Z,14.20
2022-10-29T21:58:55.010Z,14.20
2022-10-29T22:01:23.668Z,14.20
2022-10-29T22:03:52.410Z,14.10
2022-10-29T22:06:22.772Z,14.10
2022-10-29T22:08:56.859Z,14.00
2022-10-29T22:11:26.684Z,14.00
2022-10-29T22:13:58.329Z,13.90
2022-10-29T22:16:26.823Z,14.00
2022-10-29T22:18:55.349Z,14.00
2022-10-29T22:21:26.702Z,13.90
2022-10-29T22:23:57.710Z,13.90
2022-10-29T22:26:27.906Z,13.90
2022-10-29T22:28:57.017Z,13.90
2022-10-29T22:31:25.633Z,13.90
2022-10-29T22:33:54.280Z,13.90
2022-10-29T22:36:24.624Z,13.90
2022-10-29T22:38:56.885Z,13.90
2022-10-29T22:41:26.178Z,13.90
2022-10-29T22:43:55.146Z,13.80
2022-10-29T22:46:23.769Z,13.90
2022-10-29T22:48:52.363Z,13.90
2022-10-29T22:51:23.286Z,13.90
2022-10-29T22:53:52.851Z,13.90
2022-10-29T22:56:24.970Z,13.90
2022-10-29T22:58:53.763Z,13.80
2022-10-29T23:01:23.812Z,13.80
2022-10-29T23:03:52.860Z,13.70
2022-10-29T23:06:23.594Z,13.70
2022-10-29T23:08:53.376Z,13.70
2022-10-29T23:11:25.059Z,13.70
2022-10-29T23:13:55.393Z,13.60
2022-10-29T23:16:24.738Z,13.60
2022-10-29T23:18:55.106Z,13.50
2022-10-29T23:21:24.175Z,13.50
2022-10-29T23:23:52.947Z,13.50
2022-10-29T23:26:27.340Z,13.50
2022-10-29T23:28:55.908Z,13.50
2022-10-29T23:31:25.850Z,13.50
2022-10-29T23:33:56.639Z,13.50
2022-10-29T23:36:26.594Z,13.50
2022-10-29T23:38:59.278Z,13.40
2022-10-29T23:41:30.448Z,13.30
2022-10-29T23:43:59.533Z,13.30
2022-10-29T23:46:28.007Z,13.30
2022-10-29T23:48:56.642Z,13.40
2022-10-29T23:51:25.151Z,13.30
2022-10-29T23:53:56.578Z,13.30
2022-10-29T23:56:26.566Z,13.30
2022-10-29T23:58:56.672Z,13.30
